sensor_id;sensor_type;location;lat;lon;timestamp;pressure;altitude;pressure_sealevel;temperature;humidity
7836;BME280;3963;42.658;23.298;2022-07-10T00:00:28;60233.88;;;15.81;100.00
7836;BME280;3963;42.658;23.298;2022-07-10T00:02:56;60266.47;;;15.87;100.00
7836;BME280;3963;42.658;23.298;2022-07-10T00:05:25;60226.28;;;15.89;100.00
7836;BME280;3963;42.658;23.298;2022-07-10T00:07:52;60205.41;;;15.89;100.00
7836;BME280;3963;42.658;23.298;2022-07-10T00:10:19;60207.69;;;15.79;100.00
7836;BME280;3963;42.658;23.298;2022-07-10T00:12:48;60222.44;;;15.83;100.00
7836;BME280;3963;42.658;23.298;2022-07-10T00:15:16;60230.72;;;15.81;100.00
7836;BME280;3963;42.658;23.298;2022-07-10T00:17:44;60223.44;;;15.81;100.00
7836;BME280;3963;42.658;23.298;2022-07-10T00:20:13;60187.97;;;15.82;100.00
7836;BME280;3963;42.658;23.298;2022-07-10T00:22:41;60164.81;;;15.78;100.00
7836;BME280;3963;42.658;23.298;2022-07-10T00:25:10;60190.56;;;15.82;100.00
7836;BME280;3963;42.658;23.298;2022-07-10T00:27:37;60188.78;;;15.76;100.00
7836;BME280;3963;42.658;23.298;2022-07-10T00:30:08;60214.97;;;15.78;100.00
7836;BME280;3963;42.658;23.298;2022-07-10T00:32:37;60196.44;;;15.71;100.00
7836;BME280;3963;42.658;23.298;2022-07-10T00:35:05;60201.19;;;15.73;100.00
7836;BME280;3963;42.658;23.298;2022-07-10T00:37:33;60206.50;;;15.75;100.00
7836;BME280;3963;42.658;23.298;2022-07-10T00:40:01;60198.13;;;15.75;100.00
7836;BME280;3963;42.658;23.298;2022-07-10T00:42:30;60198.16;;;15.60;100.00
7836;BME280;3963;42.658;23.298;2022-07-10T00:44:57;60222.56;;;15.71;100.00
7836;BME280;3963;42.658;23.298;2022-07-10T00:47:26;60195.97;;;15.73;100.00
7836;BME280;3963;42.658;23.298;2022-07-10T00:49:54;60190.13;;;15.70;100.00
7836;BME280;3963;42.658;23.298;2022-07-10T00:52:22;60187.25;;;15.62;100.00
7836;BME280;3963;42.658;23.298;2022-07-10T00:54:50;60164.28;;;15.63;100.00
7836;BME280;3963;42.658;23.298;2022-07-10T00:57:18;60199.69;;;15.74;100.00
7836;BME280;3963;42.658;23.298;2022-07-10T00:59:46;60200.19;;;15.74;100.00
7836;BME280;3963;42.658;23.298;2022-07-10T01:02:14;60174.09;;;15.60;100.00
7836;BME280;3963;42.658;23.298;2022-07-10T01:04:43;60202.56;;;15.67;100.00
7836;BME280;3963;42.658;23.298;2022-07-10T01:07:11;60194.00;;;15.61;100.00
7836;BME280;3963;42.658;23.298;2022-07-10T01:09:42;60184.75;;;15.65;100.00
7836;BME280;3963;42.658;23.298;2022-07-10T01:12:11;60204.00;;;15.63;100.00
7836;BME280;3963;42.658;23.298;2022-07-10T01:14:39;60154.66;;;15.56;100.00
7836;BME280;3963;42.658;23.298;2022-07-10T01:17:08;60187.06;;;15.57;100.00
7836;BME280;3963;42.658;23.298;2022-07-10T01:19:35;60179.53;;;15.50;100.00
7836;BME280;3963;42.658;23.298;2022-07-10T01:22:05;60166.38;;;15.47;100.00
7836;BME280;3963;42.658;23.298;2022-07-10T01:24:32;60185.34;;;15.38;100.00
7836;BME280;3963;42.658;23.298;2022-07-10T01:26:59;60185.28;;;15.50;100.00
7836;BME280;3963;42.658;23.298;2022-07-10T01:29:27;60186.81;;;15.49;100.00
7836;BME280;3963;42.658;23.298;2022-07-10T01:31:56;60161.06;;;15.45;100.00
7836;BME280;3963;42.658;23.298;2022-07-10T01:34:26;60188.53;;;15.54;100.00
7836;BME280;3963;42.658;23.298;2022-07-10T01:36:53;60176.63;;;15.57;100.00
7836;BME280;3963;42.658;23.298;2022-07-10T01:39:22;60200.59;;;15.55;100.00
7836;BME280;3963;42.658;23.298;2022-07-10T01:41:49;60181.50;;;15.62;100.00
7836;BME280;3963;42.658;23.298;2022-07-10T01:44:16;60197.78;;;15.65;100.00
7836;BME280;3963;42.658;23.298;2022-07-10T01:46:44;60198.41;;;15.68;100.00
7836;BME280;3963;42.658;23.298;2022-07-10T01:49:12;60175.63;;;15.73;100.00
7836;BME280;3963;42.658;23.298;2022-07-10T01:51:40;60205.34;;;15.72;100.00
7836;BME280;3963;42.658;23.298;2022-07-10T01:54:08;60228.41;;;15.74;100.00
7836;BME280;3963;42.658;23.298;2022-07-10T01:56:37;60245.22;;;15.77;100.00
7836;BME280;3963;42.658;23.298;2022-07-10T01:59:05;60190.22;;;15.72;100.00
7836;BME280;3963;42.658;23.298;2022-07-10T02:01:32;60187.06;;;15.72;100.00
7836;BME280;3963;42.658;23.298;2022-07-10T02:04:00;60233.53;;;15.71;100.00
7836;BME280;3963;42.658;23.298;2022-07-10T02:06:45;60214.28;;;15.58;100.00
7836;BME280;3963;42.658;23.298;2022-07-10T02:09:12;60210.41;;;15.52;100.00
7836;BME280;3963;42.658;23.298;2022-07-10T02:11:42;60200.22;;;15.45;100.00
7836;BME280;3963;42.658;23.298;2022-07-10T02:14:09;60191.22;;;15.41;100.00
7836;BME280;3963;42.658;23.298;2022-07-10T02:16:37;60163.78;;;15.47;100.00
7836;BME280;3963;42.658;23.298;2022-07-10T02:19:05;60170.88;;;15.42;100.00
7836;BME280;3963;42.658;23.298;2022-07-10T02:21:33;60134.09;;;15.34;100.00
7836;BME280;3963;42.658;23.298;2022-07-10T02:24:00;60160.81;;;15.37;100.00
7836;BME280;3963;42.658;23.298;2022-07-10T02:26:27;60182.75;;;15.38;100.00
7836;BME280;3963;42.658;23.298;2022-07-10T02:28:55;60157.47;;;15.32;100.00
7836;BME280;3963;42.658;23.298;2022-07-10T02:31:22;60155.94;;;15.33;100.00
7836;BME280;3963;42.658;23.298;2022-07-10T02:33:49;60127.88;;;15.36;100.00
7836;BME280;3963;42.658;23.298;2022-07-10T02:36:15;60190.94;;;15.34;100.00
7836;BME280;3963;42.658;23.298;2022-07-10T02:38:42;60155.94;;;15.33;100.00
7836;BME280;3963;42.658;23.298;2022-07-10T02:41:10;60143.00;;;15.21;100.00
7836;BME280;3963;42.658;23.298;2022-07-10T02:43:38;60171.59;;;15.33;100.00
7836;BME280;3963;42.658;23.298;2022-07-10T02:46:07;60162.88;;;15.37;100.00
7836;BME280;3963;42.658;23.298;2022-07-10T02:48:34;60158.56;;;15.33;100.00
7836;BME280;3963;42.658;23.298;2022-07-10T02:51:01;60175.38;;;15.36;100.00
7836;BME280;3963;42.658;23.298;2022-07-10T02:53:28;60135.97;;;15.29;100.00
7836;BME280;3963;42.658;23.298;2022-07-10T02:55:56;60130.94;;;15.34;100.00
7836;BME280;3963;42.658;23.298;2022-07-10T02:58:24;60121.03;;;15.34;100.00
7836;BME280;3963;42.658;23.298;2022-07-10T03:00:51;60138.94;;;15.39;100.00
7836;BME280;3963;42.658;23.298;2022-07-10T03:03:19;60159.88;;;15.41;100.00
7836;BME280;3963;42.658;23.298;2022-07-10T03:05:46;60180.88;;;15.44;100.00
7836;BME280;3963;42.658;23.298;2022-07-10T03:08:14;60187.69;;;15.45;100.00
7836;BME280;3963;42.658;23.298;2022-07-10T03:10:41;60169.00;;;15.47;100.00
7836;BME280;3963;42.658;23.298;2022-07-10T03:13:09;60197.34;;;15.52;100.00
7836;BME280;3963;42.658;23.298;2022-07-10T03:15:36;60204.72;;;15.54;100.00
7836;BME280;3963;42.658;23.298;2022-07-10T03:18:03;60178.63;;;15.54;100.00
7836;BME280;3963;42.658;23.298;2022-07-10T03:20:31;60160.00;;;15.44;100.00
7836;BME280;3963;42.658;23.298;2022-07-10T03:22:59;60163.13;;;15.44;100.00
7836;BME280;3963;42.658;23.298;2022-07-10T03:25:25;60164.94;;;15.36;100.00
7836;BME280;3963;42.658;23.298;2022-07-10T03:27:53;60159.38;;;15.41;100.00
7836;BME280;3963;42.658;23.298;2022-07-10T03:30:20;60145.84;;;15.43;100.00
7836;BME280;3963;42.658;23.298;2022-07-10T03:32:47;60191.66;;;15.39;100.00
7836;BME280;3963;42.658;23.298;2022-07-10T03:35:14;60204.44;;;15.46;100.00
7836;BME280;3963;42.658;23.298;2022-07-10T03:37:43;60179.00;;;15.49;100.00
7836;BME280;3963;42.658;23.298;2022-07-10T03:40:11;60201.94;;;15.49;100.00
7836;BME280;3963;42.658;23.298;2022-07-10T03:42:38;60199.31;;;15.64;100.00
7836;BME280;3963;42.658;23.298;2022-07-10T03:45:08;60207.41;;;15.57;100.00
7836;BME280;3963;42.658;23.298;2022-07-10T03:47:35;60198.53;;;15.56;100.00
7836;BME280;3963;42.658;23.298;2022-07-10T03:50:03;60183.66;;;15.49;100.00
7836;BME280;3963;42.658;23.298;2022-07-10T03:52:30;60164.47;;;15.53;100.00
7836;BME280;3963;42.658;23.298;2022-07-10T03:55:00;60181.06;;;15.49;100.00
7836;BME280;3963;42.658;23.298;2022-07-10T03:57:27;60171.25;;;15.52;100.00
7836;BME280;3963;42.658;23.298;2022-07-10T04:00:13;60165.66;;;15.42;100.00
7836;BME280;3963;42.658;23.298;2022-07-10T04:02:40;60143.16;;;15.40;100.00
7836;BME280;3963;42.658;23.298;2022-07-10T04:05:08;60177.19;;;15.43;100.00
7836;BME280;3963;42.658;23.298;2022-07-10T04:07:37;60152.44;;;15.37;100.00
7836;BME280;3963;42.658;23.298;2022-07-10T04:10:07;60149.66;;;15.32;100.00
7836;BME280;3963;42.658;23.298;2022-07-10T04:12:35;60122.38;;;15.43;100.00
7836;BME280;3963;42.658;23.298;2022-07-10T04:15:03;60195.63;;;15.48;100.00
7836;BME280;3963;42.658;23.298;2022-07-10T04:17:30;60161.53;;;15.58;100.00
7836;BME280;3963;42.658;23.298;2022-07-10T04:19:59;60197.72;;;15.47;100.00
7836;BME280;3963;42.658;23.298;2022-07-10T04:22:27;60210.75;;;15.47;100.00
7836;BME280;3963;42.658;23.298;2022-07-10T04:24:54;60195.28;;;15.67;100.00
7836;BME280;3963;42.658;23.298;2022-07-10T04:27:23;60238.94;;;15.76;100.00
7836;BME280;3963;42.658;23.298;2022-07-10T04:29:51;60167.44;;;15.63;100.00
7836;BME280;3963;42.658;23.298;2022-07-10T04:32:18;60224.16;;;15.87;100.00
7836;BME280;3963;42.658;23.298;2022-07-10T04:34:45;60223.25;;;15.91;100.00
7836;BME280;3963;42.658;23.298;2022-07-10T04:37:12;60239.16;;;15.98;100.00
7836;BME280;3963;42.658;23.298;2022-07-10T04:39:40;60265.28;;;16.13;100.00
7836;BME280;3963;42.658;23.298;2022-07-10T04:42:08;60279.41;;;16.29;100.00
7836;BME280;3963;42.658;23.298;2022-07-10T04:44:37;60303.94;;;16.27;100.00
7836;BME280;3963;42.658;23.298;2022-07-10T04:47:05;60285.72;;;16.30;100.00
7836;BME280;3963;42.658;23.298;2022-07-10T04:49:34;60328.00;;;16.42;100.00
7836;BME280;3963;42.658;23.298;2022-07-10T04:52:01;60284.00;;;16.40;100.00
7836;BME280;3963;42.658;23.298;2022-07-10T04:54:28;60324.75;;;16.39;100.00
7836;BME280;3963;42.658;23.298;2022-07-10T04:56:55;60305.63;;;16.46;100.00
7836;BME280;3963;42.658;23.298;2022-07-10T04:59:22;60280.31;;;16.54;100.00
7836;BME280;3963;42.658;23.298;2022-07-10T05:01:51;60294.25;;;16.50;100.00
7836;BME280;3963;42.658;23.298;2022-07-10T05:04:18;60307.25;;;16.47;100.00
7836;BME280;3963;42.658;23.298;2022-07-10T05:06:45;60289.03;;;16.50;100.00
7836;BME280;3963;42.658;23.298;2022-07-10T05:09:12;60331.31;;;16.63;100.00
7836;BME280;3963;42.658;23.298;2022-07-10T05:11:39;60330.41;;;16.67;100.00
7836;BME280;3963;42.658;23.298;2022-07-10T05:14:07;60362.88;;;16.82;100.00
7836;BME280;3963;42.658;23.298;2022-07-10T05:16:34;60359.63;;;16.79;100.00
7836;BME280;3963;42.658;23.298;2022-07-10T05:19:03;60357.19;;;16.84;100.00
7836;BME280;3963;42.658;23.298;2022-07-10T05:21:30;60399.84;;;16.92;100.00
7836;BME280;3963;42.658;23.298;2022-07-10T05:23:57;60376.22;;;16.90;100.00
7836;BME280;3963;42.658;23.298;2022-07-10T05:26:24;60387.72;;;17.05;100.00
7836;BME280;3963;42.658;23.298;2022-07-10T05:28:51;60398.09;;;17.17;100.00
7836;BME280;3963;42.658;23.298;2022-07-10T05:31:20;60387.09;;;17.17;100.00
7836;BME280;3963;42.658;23.298;2022-07-10T05:33:47;60399.09;;;17.16;100.00
7836;BME280;3963;42.658;23.298;2022-07-10T05:36:15;60416.69;;;17.25;100.00
7836;BME280;3963;42.658;23.298;2022-07-10T05:38:43;60409.19;;;17.21;100.00
7836;BME280;3963;42.658;23.298;2022-07-10T05:41:10;60426.34;;;17.32;100.00
7836;BME280;3963;42.658;23.298;2022-07-10T05:43:38;60424.28;;;17.32;100.00
7836;BME280;3963;42.658;23.298;2022-07-10T05:46:05;60450.78;;;17.42;100.00
7836;BME280;3963;42.658;23.298;2022-07-10T05:48:32;60460.63;;;17.54;100.00
7836;BME280;3963;42.658;23.298;2022-07-10T05:51:00;60469.31;;;17.62;100.00
7836;BME280;3963;42.658;23.298;2022-07-10T05:53:28;60475.81;;;17.68;100.00
7836;BME280;3963;42.658;23.298;2022-07-10T05:56:00;60491.97;;;17.66;100.00
7836;BME280;3963;42.658;23.298;2022-07-10T05:58:27;60460.72;;;17.71;100.00
7836;BME280;3963;42.658;23.298;2022-07-10T06:00:56;60474.91;;;17.72;100.00
7836;BME280;3963;42.658;23.298;2022-07-10T06:03:23;60472.56;;;17.65;100.00
7836;BME280;3963;42.658;23.298;2022-07-10T06:05:50;60538.69;;;17.83;100.00
7836;BME280;3963;42.658;23.298;2022-07-10T06:08:18;60516.44;;;17.91;100.00
7836;BME280;3963;42.658;23.298;2022-07-10T06:10:47;60527.44;;;18.06;100.00
7836;BME280;3963;42.658;23.298;2022-07-10T06:13:14;60562.97;;;18.17;100.00
7836;BME280;3963;42.658;23.298;2022-07-10T06:15:41;60551.28;;;18.14;100.00
7836;BME280;3963;42.658;23.298;2022-07-10T06:18:08;60571.97;;;18.36;100.00
7836;BME280;3963;42.658;23.298;2022-07-10T06:20:34;60597.13;;;18.35;100.00
7836;BME280;3963;42.658;23.298;2022-07-10T06:23:01;60603.00;;;18.38;100.00
7836;BME280;3963;42.658;23.298;2022-07-10T06:25:30;60610.78;;;18.50;100.00
7836;BME280;3963;42.658;23.298;2022-07-10T06:27:58;60578.47;;;18.42;100.00
7836;BME280;3963;42.658;23.298;2022-07-10T06:30:26;60597.41;;;18.57;100.00
7836;BME280;3963;42.658;23.298;2022-07-10T06:32:53;60640.06;;;18.77;100.00
7836;BME280;3963;42.658;23.298;2022-07-10T06:35:20;60637.97;;;18.92;100.00
7836;BME280;3963;42.658;23.298;2022-07-10T06:37:49;60680.47;;;19.22;100.00
7836;BME280;3963;42.658;23.298;2022-07-10T06:40:17;60680.00;;;19.24;100.00
7836;BME280;3963;42.658;23.298;2022-07-10T06:42:48;60781.09;;;19.74;100.00
7836;BME280;3963;42.658;23.298;2022-07-10T06:45:17;60833.97;;;20.13;100.00
7836;BME280;3963;42.658;23.298;2022-07-10T06:47:44;60934.94;;;20.70;100.00
7836;BME280;3963;42.658;23.298;2022-07-10T06:50:25;60939.09;;;20.98;100.00
7836;BME280;3963;42.658;23.298;2022-07-10T06:52:53;60971.97;;;21.05;100.00
7836;BME280;3963;42.658;23.298;2022-07-10T06:55:21;60998.22;;;21.02;100.00
7836;BME280;3963;42.658;23.298;2022-07-10T06:57:48;61016.25;;;21.50;100.00
7836;BME280;3963;42.658;23.298;2022-07-10T07:00:17;61069.41;;;21.78;100.00
7836;BME280;3963;42.658;23.298;2022-07-10T07:02:45;61133.91;;;21.96;100.00
7836;BME280;3963;42.658;23.298;2022-07-10T07:05:12;61201.50;;;22.56;100.00
7836;BME280;3963;42.658;23.298;2022-07-10T07:07:41;61264.84;;;23.14;98.93
7836;BME280;3963;42.658;23.298;2022-07-10T07:10:09;61234.91;;;22.89;99.53
7836;BME280;3963;42.658;23.298;2022-07-10T07:12:37;61271.22;;;23.15;100.00
7836;BME280;3963;42.658;23.298;2022-07-10T07:15:05;61307.69;;;23.44;97.93
7836;BME280;3963;42.658;23.298;2022-07-10T07:17:39;61378.63;;;23.76;98.80
7836;BME280;3963;42.658;23.298;2022-07-10T07:20:23;61501.00;;;24.37;93.95
7836;BME280;3963;42.658;23.298;2022-07-10T07:23:07;61404.41;;;24.02;94.34
7836;BME280;3963;42.658;23.298;2022-07-10T07:25:37;61390.03;;;23.69;97.83
7836;BME280;3963;42.658;23.298;2022-07-10T07:28:08;61492.88;;;24.32;94.51
7836;BME280;3963;42.658;23.298;2022-07-10T07:30:36;61491.22;;;24.60;95.30
7836;BME280;3963;42.658;23.298;2022-07-10T07:33:05;61520.97;;;24.77;86.22
7836;BME280;3963;42.658;23.298;2022-07-10T07:35:33;61678.63;;;25.54;73.55
7836;BME280;3963;42.658;23.298;2022-07-10T07:38:02;61699.66;;;25.64;69.56
7836;BME280;3963;42.658;23.298;2022-07-10T07:40:31;61752.94;;;26.13;65.17
7836;BME280;3963;42.658;23.298;2022-07-10T07:42:59;61763.75;;;26.18;63.59
7836;BME280;3963;42.658;23.298;2022-07-10T07:45:27;61796.66;;;26.16;62.88
7836;BME280;3963;42.658;23.298;2022-07-10T07:47:55;61740.94;;;25.90;64.51
7836;BME280;3963;42.658;23.298;2022-07-10T07:50:27;61706.53;;;25.77;64.28
7836;BME280;3963;42.658;23.298;2022-07-10T07:52:55;61721.72;;;25.72;62.84
7836;BME280;3963;42.658;23.298;2022-07-10T07:55:22;61665.91;;;25.40;64.13
7836;BME280;3963;42.658;23.298;2022-07-10T07:57:52;61706.34;;;25.72;64.77
7836;BME280;3963;42.658;23.298;2022-07-10T08:00:21;61845.28;;;26.68;59.76
7836;BME280;3963;42.658;23.298;2022-07-10T08:02:50;61900.13;;;27.14;56.82
7836;BME280;3963;42.658;23.298;2022-07-10T08:05:18;61917.56;;;27.25;57.55
7836;BME280;3963;42.658;23.298;2022-07-10T08:07:49;62005.78;;;27.50;56.90
7836;BME280;3963;42.658;23.298;2022-07-10T08:10:17;61957.38;;;27.52;55.07
7836;BME280;3963;42.658;23.298;2022-07-10T08:12:45;62023.94;;;27.66;52.96
7836;BME280;3963;42.658;23.298;2022-07-10T08:15:14;62011.28;;;27.69;50.32
7836;BME280;3963;42.658;23.298;2022-07-10T08:17:42;61966.56;;;27.40;51.22
7836;BME280;3963;42.658;23.298;2022-07-10T08:20:12;61978.66;;;27.37;51.01
7836;BME280;3963;42.658;23.298;2022-07-10T08:22:39;61980.06;;;27.60;50.70
7836;BME280;3963;42.658;23.298;2022-07-10T08:25:08;62012.22;;;27.65;49.55
7836;BME280;3963;42.658;23.298;2022-07-10T08:27:36;61981.41;;;27.39;50.95
7836;BME280;3963;42.658;23.298;2022-07-10T08:30:05;62004.13;;;27.77;50.33
7836;BME280;3963;42.658;23.298;2022-07-10T08:32:32;62174.22;;;28.52;47.39
7836;BME280;3963;42.658;23.298;2022-07-10T08:35:00;62189.34;;;28.71;46.89
7836;BME280;3963;42.658;23.298;2022-07-10T08:37:26;62102.78;;;28.09;47.24
7836;BME280;3963;42.658;23.298;2022-07-10T08:39:54;61910.97;;;26.89;49.58
7836;BME280;3963;42.658;23.298;2022-07-10T08:42:22;61819.19;;;26.52;51.67
7836;BME280;3963;42.658;23.298;2022-07-10T08:44:51;61713.56;;;25.81;56.68
7836;BME280;3963;42.658;23.298;2022-07-10T08:47:21;61717.25;;;25.80;55.31
7836;BME280;3963;42.658;23.298;2022-07-10T08:49:51;61610.38;;;25.16;58.44
7836;BME280;3963;42.658;23.298;2022-07-10T08:52:25;61548.22;;;24.83;58.74
7836;BME280;3963;42.658;23.298;2022-07-10T08:54:53;61599.59;;;25.11;57.96
7836;BME280;3963;42.658;23.298;2022-07-10T08:57:23;61732.69;;;25.97;53.13
7836;BME280;3963;42.658;23.298;2022-07-10T08:59:50;61741.56;;;25.93;53.57
7836;BME280;3963;42.658;23.298;2022-07-10T09:02:20;61658.22;;;25.18;57.69
7836;BME280;3963;42.658;23.298;2022-07-10T09:04:48;61684.84;;;25.65;58.01
7836;BME280;3963;42.658;23.298;2022-07-10T09:07:15;61807.00;;;26.38;56.14
7836;BME280;3963;42.658;23.298;2022-07-10T09:09:52;61857.59;;;26.84;56.08
7836;BME280;3963;42.658;23.298;2022-07-10T09:12:22;61889.88;;;26.80;52.45
7836;BME280;3963;42.658;23.298;2022-07-10T09:14:49;62020.84;;;27.68;50.43
7836;BME280;3963;42.658;23.298;2022-07-10T09:17:16;62096.56;;;28.13;49.64
7836;BME280;3963;42.658;23.298;2022-07-10T09:19:44;61990.72;;;27.60;48.96
7836;BME280;3963;42.658;23.298;2022-07-10T09:22:12;62016.25;;;27.59;50.97
7836;BME280;3963;42.658;23.298;2022-07-10T09:24:41;62027.25;;;27.84;48.73
7836;BME280;3963;42.658;23.298;2022-07-10T09:27:09;62010.63;;;27.66;48.44
7836;BME280;3963;42.658;23.298;2022-07-10T09:29:48;62097.84;;;28.19;48.28
7836;BME280;3963;42.658;23.298;2022-07-10T09:32:17;62293.00;;;29.32;47.23
7836;BME280;3963;42.658;23.298;2022-07-10T09:34:46;62354.34;;;29.58;44.95
7836;BME280;3963;42.658;23.298;2022-07-10T09:37:18;62413.16;;;29.88;43.80
7836;BME280;3963;42.658;23.298;2022-07-10T09:39:54;62358.22;;;29.77;43.95
7836;BME280;3963;42.658;23.298;2022-07-10T09:42:28;62273.44;;;28.94;46.83
7836;BME280;3963;42.658;23.298;2022-07-10T09:45:15;62277.88;;;29.28;44.48
7836;BME280;3963;42.658;23.298;2022-07-10T09:47:44;62011.00;;;27.76;48.40
7836;BME280;3963;42.658;23.298;2022-07-10T09:50:22;61881.22;;;26.62;53.26
7836;BME280;3963;42.658;23.298;2022-07-10T09:52:52;61946.09;;;27.19;54.04
7836;BME280;3963;42.658;23.298;2022-07-10T09:55:21;61972.44;;;27.26;50.99
7836;BME280;3963;42.658;23.298;2022-07-10T09:57:54;62068.31;;;27.85;49.47
7836;BME280;3963;42.658;23.298;2022-07-10T10:00:27;62119.34;;;28.39;46.80
7836;BME280;3963;42.658;23.298;2022-07-10T10:02:56;62198.72;;;28.65;47.16
7836;BME280;3963;42.658;23.298;2022-07-10T10:05:28;62378.56;;;29.78;44.42
7836;BME280;3963;42.658;23.298;2022-07-10T10:08:01;62289.22;;;29.31;43.87
7836;BME280;3963;42.658;23.298;2022-07-10T10:10:32;62306.44;;;29.34;43.49
7836;BME280;3963;42.658;23.298;2022-07-10T10:13:03;62342.53;;;29.72;42.82
7836;BME280;3963;42.658;23.298;2022-07-10T10:15:33;62437.53;;;30.10;41.71
7836;BME280;3963;42.658;23.298;2022-07-10T10:18:02;62367.09;;;29.85;43.98
7836;BME280;3963;42.658;23.298;2022-07-10T10:20:32;62257.25;;;29.19;45.96
7836;BME280;3963;42.658;23.298;2022-07-10T10:23:09;62497.78;;;30.62;42.06
7836;BME280;3963;42.658;23.298;2022-07-10T10:25:37;62289.75;;;29.17;43.41
7836;BME280;3963;42.658;23.298;2022-07-10T10:28:07;62097.19;;;28.16;44.65
7836;BME280;3963;42.658;23.298;2022-07-10T10:30:38;61876.94;;;26.90;49.77
7836;BME280;3963;42.658;23.298;2022-07-10T10:36:09;61800.41;;;26.17;53.66
7836;BME280;3963;42.658;23.298;2022-07-10T10:39:03;61824.41;;;26.49;51.21
7836;BME280;3963;42.658;23.298;2022-07-10T10:41:38;61797.81;;;26.34;53.34
7836;BME280;3963;42.658;23.298;2022-07-10T10:44:29;61775.28;;;26.43;53.39
7836;BME280;3963;42.658;23.298;2022-07-10T10:47:03;61682.09;;;25.77;52.46
7836;BME280;3963;42.658;23.298;2022-07-10T10:49:49;61672.22;;;25.53;55.83
7836;BME280;3963;42.658;23.298;2022-07-10T10:52:17;61629.47;;;25.31;54.30
7836;BME280;3963;42.658;23.298;2022-07-10T10:55:06;61589.78;;;25.19;55.24
7836;BME280;3963;42.658;23.298;2022-07-10T10:57:39;61589.97;;;25.09;54.55
7836;BME280;3963;42.658;23.298;2022-07-10T11:00:28;61569.44;;;24.98;56.58
7836;BME280;3963;42.658;23.298;2022-07-10T11:03:20;61621.53;;;25.16;57.33
7836;BME280;3963;42.658;23.298;2022-07-10T11:05:48;61536.34;;;24.92;59.29
7836;BME280;3963;42.658;23.298;2022-07-10T11:08:36;61550.41;;;24.85;57.50
7836;BME280;3963;42.658;23.298;2022-07-10T11:14:06;61826.94;;;26.61;52.12
7836;BME280;3963;42.658;23.298;2022-07-10T11:16:34;61876.00;;;27.09;50.34
7836;BME280;3963;42.658;23.298;2022-07-10T11:19:02;61878.59;;;26.91;48.37
7836;BME280;3963;42.658;23.298;2022-07-10T11:21:39;61886.94;;;27.02;50.53
7836;BME280;3963;42.658;23.298;2022-07-10T11:24:20;61980.69;;;27.34;49.35
7836;BME280;3963;42.658;23.298;2022-07-10T11:26:59;61898.84;;;27.08;49.01
7836;BME280;3963;42.658;23.298;2022-07-10T11:29:36;61866.56;;;26.83;49.20
7836;BME280;3963;42.658;23.298;2022-07-10T11:32:05;61746.59;;;26.29;50.69
7836;BME280;3963;42.658;23.298;2022-07-10T11:34:38;61773.84;;;26.17;52.58
7836;BME280;3963;42.658;23.298;2022-07-10T11:37:14;61709.72;;;25.93;55.43
7836;BME280;3963;42.658;23.298;2022-07-10T11:39:41;61734.44;;;26.01;52.30
7836;BME280;3963;42.658;23.298;2022-07-10T11:42:09;61651.63;;;25.56;52.52
7836;BME280;3963;42.658;23.298;2022-07-10T11:44:36;61625.53;;;25.54;53.71
7836;BME280;3963;42.658;23.298;2022-07-10T11:47:04;61701.66;;;25.75;55.41
7836;BME280;3963;42.658;23.298;2022-07-10T11:49:32;61650.06;;;25.57;54.05
7836;BME280;3963;42.658;23.298;2022-07-10T11:52:05;61652.63;;;25.69;54.45
7836;BME280;3963;42.658;23.298;2022-07-10T11:54:32;61656.66;;;25.63;53.47
7836;BME280;3963;42.658;23.298;2022-07-10T11:57:05;61619.16;;;25.39;53.93
7836;BME280;3963;42.658;23.298;2022-07-10T11:59:34;61655.38;;;25.57;53.54
7836;BME280;3963;42.658;23.298;2022-07-10T12:02:02;61595.72;;;25.37;54.90
7836;BME280;3963;42.658;23.298;2022-07-10T12:04:30;61623.28;;;25.50;54.52
7836;BME280;3963;42.658;23.298;2022-07-10T12:06:58;61586.22;;;25.23;55.29
7836;BME280;3963;42.658;23.298;2022-07-10T12:09:28;61601.84;;;25.45;54.86
7836;BME280;3963;42.658;23.298;2022-07-10T12:11:59;61635.53;;;25.51;52.80
7836;BME280;3963;42.658;23.298;2022-07-10T12:14:26;61639.88;;;25.70;50.89
7836;BME280;3963;42.658;23.298;2022-07-10T12:16:55;61692.34;;;25.81;50.31
7836;BME280;3963;42.658;23.298;2022-07-10T12:19:24;61592.16;;;25.26;51.51
7836;BME280;3963;42.658;23.298;2022-07-10T12:21:53;61577.09;;;25.05;53.58
7836;BME280;3963;42.658;23.298;2022-07-10T12:24:20;61570.88;;;25.09;53.58
7836;BME280;3963;42.658;23.298;2022-07-10T12:26:51;61578.38;;;25.11;53.07
7836;BME280;3963;42.658;23.298;2022-07-10T12:29:22;61558.59;;;25.22;51.77
7836;BME280;3963;42.658;23.298;2022-07-10T12:31:51;61546.75;;;25.01;52.25
7836;BME280;3963;42.658;23.298;2022-07-10T12:34:19;61523.38;;;24.85;51.73
7836;BME280;3963;42.658;23.298;2022-07-10T12:36:49;61547.47;;;25.07;51.38
7836;BME280;3963;42.658;23.298;2022-07-10T12:39:18;61536.81;;;24.90;52.38
7836;BME280;3963;42.658;23.298;2022-07-10T12:41:57;61501.06;;;24.84;54.05
7836;BME280;3963;42.658;23.298;2022-07-10T12:44:35;61486.63;;;24.65;52.31
7836;BME280;3963;42.658;23.298;2022-07-10T12:47:05;61451.94;;;24.58;51.85
7836;BME280;3963;42.658;23.298;2022-07-10T12:49:52;61467.75;;;24.41;53.56
7836;BME280;3963;42.658;23.298;2022-07-10T12:52:21;61452.13;;;24.48;53.40
7836;BME280;3963;42.658;23.298;2022-07-10T12:54:48;61460.72;;;24.37;51.42
7836;BME280;3963;42.658;23.298;2022-07-10T12:57:18;61434.41;;;24.42;51.72
7836;BME280;3963;42.658;23.298;2022-07-10T12:59:45;61446.63;;;24.43;47.60
7836;BME280;3963;42.658;23.298;2022-07-10T13:02:16;61458.06;;;24.51;47.27
7836;BME280;3963;42.658;23.298;2022-07-10T13:04:54;61501.44;;;24.64;47.65
7836;BME280;3963;42.658;23.298;2022-07-10T13:07:30;61504.28;;;24.69;46.51
7836;BME280;3963;42.658;23.298;2022-07-10T13:10:00;61524.09;;;24.75;45.95
7836;BME280;3963;42.658;23.298;2022-07-10T13:12:28;61506.38;;;24.69;45.50
7836;BME280;3963;42.658;23.298;2022-07-10T13:14:57;61512.41;;;24.74;44.23
7836;BME280;3963;42.658;23.298;2022-07-10T13:17:23;61557.19;;;24.96;44.08
7836;BME280;3963;42.658;23.298;2022-07-10T13:19:51;61500.13;;;24.73;44.68
7836;BME280;3963;42.658;23.298;2022-07-10T13:22:19;61440.59;;;24.52;43.79